createdAt,value
2018-06-08T00:00:06.306Z,112.80
2018-06-08T00:02:34.793Z,105.10
2018-06-08T00:05:03.323Z,103.57
2018-06-08T00:07:31.881Z,115.67
2018-06-08T00:10:00.462Z,114.10
2018-06-08T00:12:28.914Z,115.87
2018-06-08T00:14:57.358Z,107.77
2018-06-08T00:17:25.843Z,119.50
2018-06-08T00:19:54.155Z,113.57
2018-06-08T00:22:22.625Z,111.90
2018-06-08T00:24:51.144Z,116.03
2018-06-08T00:27:19.683Z,123.67
2018-06-08T00:29:48.138Z,121.70
2018-06-08T00:32:16.615Z,122.07
2018-06-08T00:34:45.056Z,127.27
2018-06-08T00:37:13.519Z,136.60
2018-06-08T00:39:42.147Z,121.10
2018-06-08T00:42:10.586Z,141.53
2018-06-08T00:44:39.071Z,118.63
2018-06-08T00:47:07.604Z,148.27
2018-06-08T00:49:36.124Z,130.17
2018-06-08T00:52:04.631Z,130.73
2018-06-08T00:54:33.091Z,141.43
2018-06-08T00:57:08.643Z,135.50
2018-06-08T00:59:37.132Z,137.13
2018-06-08T01:02:05.642Z,125.57
2018-06-08T01:04:34.092Z,140.93
2018-06-08T01:07:02.565Z,134.13
2018-06-08T01:09:31.060Z,138.20
2018-06-08T01:11:59.515Z,131.67
2018-06-08T01:14:34.303Z,149.30
2018-06-08T01:17:03.357Z,130.27
2018-06-08T01:19:33.379Z,138.23
2018-06-08T01:22:02.572Z,150.03
2018-06-08T01:24:31.380Z,148.33
2018-06-08T01:26:59.872Z,153.13
2018-06-08T01:29:28.447Z,164.33
2018-06-08T01:31:56.901Z,159.43
2018-06-08T01:34:25.368Z,161.43
2018-06-08T01:36:53.883Z,183.47
2018-06-08T01:39:22.340Z,198.90
2018-06-08T01:41:50.791Z,180.63
2018-06-08T01:44:19.360Z,201.03
2018-06-08T01:46:47.885Z,208.60
2018-06-08T01:49:16.325Z,207.77
2018-06-08T01:51:44.836Z,201.50
2018-06-08T01:54:12.982Z,228.47
2018-06-08T01:56:41.442Z,224.87
2018-06-08T01:59:09.923Z,219.50
2018-06-08T02:01:38.472Z,242.10
2018-06-08T02:04:06.968Z,247.90
2018-06-08T02:06:35.475Z,234.33
2018-06-08T02:09:05.638Z,225.30
2018-06-08T02:11:34.101Z,226.20
2018-06-08T02:14:02.617Z,256.10
2018-06-08T02:16:31.091Z,237.63
2018-06-08T02:18:59.246Z,248.33
2018-06-08T02:21:27.816Z,249.03
2018-06-08T02:23:56.281Z,244.70
2018-06-08T02:26:24.735Z,253.67
2018-06-08T02:28:53.211Z,242.80
2018-06-08T02:31:21.668Z,275.50
2018-06-08T02:33:50.100Z,267.27
2018-06-08T02:36:18.573Z,275.67
2018-06-08T02:38:47.034Z,292.77
2018-06-08T02:41:15.533Z,316.73
2018-06-08T02:43:44.011Z,290.33
2018-06-08T02:46:12.462Z,292.80
2018-06-08T02:48:40.997Z,289.67
2018-06-08T02:51:09.468Z,346.57
2018-06-08T02:53:37.959Z,314.30
2018-06-08T02:56:06.432Z,343.70
2018-06-08T02:58:34.906Z,328.17
2018-06-08T03:01:03.372Z,333.30
2018-06-08T03:03:31.831Z,324.90
2018-06-08T03:06:00.302Z,368.77
2018-06-08T03:08:28.768Z,319.27
2018-06-08T03:10:57.214Z,326.77
2018-06-08T03:13:25.717Z,324.40
2018-06-08T03:15:54.281Z,354.20
2018-06-08T03:18:22.742Z,324.50
2018-06-08T03:20:50.906Z,346.23
2018-06-08T03:23:19.343Z,330.83
2018-06-08T03:25:47.796Z,326.80
2018-06-08T03:28:16.289Z,346.83
2018-06-08T03:30:44.799Z,330.00
2018-06-08T03:33:13.258Z,343.93
2018-06-08T03:35:41.741Z,323.60
2018-06-08T03:38:10.181Z,351.90
2018-06-08T03:40:38.637Z,387.17
2018-06-08T03:43:07.128Z,431.63
2018-06-08T03:45:35.945Z,410.10
2018-06-08T03:48:04.439Z,412.50
2018-06-08T03:50:32.915Z,438.97
2018-06-08T03:53:01.360Z,430.27
2018-06-08T03:55:30.160Z,440.10
2018-06-08T03:57:58.621Z,442.17
2018-06-08T04:00:27.180Z,455.83
2018-06-08T04:02:55.646Z,451.63
2018-06-08T04:05:24.159Z,439.17
2018-06-08T04:07:52.617Z,419.17
2018-06-08T04:10:21.064Z,426.03
2018-06-08T04:12:49.690Z,442.20
2018-06-08T04:15:18.141Z,421.93
2018-06-08T04:17:46.604Z,421.20
2018-06-08T04:20:15.086Z,396.27
2018-06-08T04:22:43.244Z,406.13
2018-06-08T04:25:12.819Z,410.40
2018-06-08T04:27:41.295Z,375.17
2018-06-08T04:30:09.739Z,404.77
2018-06-08T04:32:38.202Z,429.00
2018-06-08T04:35:06.710Z,451.87
2018-06-08T04:37:35.289Z,444.03
2018-06-08T04:40:03.811Z,400.80
2018-06-08T04:42:32.302Z,404.00
2018-06-08T04:45:00.774Z,409.83
2018-06-08T04:47:29.226Z,350.73
2018-06-08T04:49:57.739Z,369.53
2018-06-08T04:52:26.299Z,369.13
2018-06-08T04:54:54.755Z,369.47
2018-06-08T04:57:24.917Z,369.87
2018-06-08T04:59:53.373Z,409.90
2018-06-08T05:02:21.824Z,346.57
2018-06-08T05:04:51.615Z,377.00
2018-06-08T05:07:20.155Z,390.30
2018-06-08T05:09:48.733Z,357.83
2018-06-08T05:12:17.211Z,397.40
2018-06-08T05:14:45.666Z,355.57
2018-06-08T05:17:14.144Z,345.13
2018-06-08T05:19:42.625Z,329.93
2018-06-08T05:22:11.069Z,310.50
2018-06-08T05:24:39.509Z,333.03
2018-06-08T05:27:07.688Z,306.63
2018-06-08T05:29:35.853Z,314.53
2018-06-08T05:32:04.333Z,311.30
2018-06-08T05:34:32.857Z,296.23
2018-06-08T05:37:01.331Z,291.73
2018-06-08T05:39:29.800Z,306.27
2018-06-08T05:41:58.261Z,300.47
2018-06-08T05:44:26.767Z,287.23
2018-06-08T05:46:55.225Z,258.17
2018-06-08T05:49:23.818Z,277.60
2018-06-08T05:51:51.960Z,270.17
2018-06-08T05:54:20.472Z,261.80
2018-06-08T05:56:48.917Z,237.23
2018-06-08T05:59:17.415Z,234.63
2018-06-08T06:01:45.867Z,236.13
2018-06-08T06:04:14.367Z,246.43
2018-06-08T06:06:42.835Z,222.30
2018-06-08T06:09:11.307Z,226.77
2018-06-08T06:11:39.815Z,247.73
2018-06-08T06:14:08.337Z,251.57
2018-06-08T06:16:36.821Z,259.53
2018-06-08T06:19:05.551Z,256.70
2018-06-08T06:21:34.110Z,209.40
2018-06-08T06:24:02.580Z,249.23
2018-06-08T06:26:31.107Z,245.00
2018-06-08T06:28:59.678Z,234.73
2018-06-08T06:31:29.138Z,253.87
2018-06-08T06:33:57.629Z,255.63
2018-06-08T06:36:26.123Z,223.67
2018-06-08T06:38:54.624Z,238.83
2018-06-08T06:41:23.113Z,252.07
2018-06-08T06:43:51.676Z,243.33
2018-06-08T06:46:20.161Z,237.07
2018-06-08T06:48:48.646Z,238.97
2018-06-08T06:51:17.100Z,234.47
2018-06-08T06:53:45.547Z,247.17
2018-06-08T06:56:14.026Z,224.43
2018-06-08T06:58:42.492Z,212.87
2018-06-08T07:01:11.082Z,228.97
2018-06-08T07:03:39.552Z,218.67
2018-06-08T07:06:08.037Z,231.10
2018-06-08T07:08:36.578Z,243.53
2018-06-08T07:11:05.095Z,246.80
2018-06-08T07:13:33.699Z,234.93
2018-06-08T07:16:02.174Z,238.17
2018-06-08T07:18:30.692Z,256.37
2018-06-08T07:20:59.163Z,265.03
2018-06-08T07:23:27.312Z,233.73
2018-06-08T07:25:55.772Z,271.47
2018-06-08T07:28:24.256Z,274.43
2018-06-08T07:30:52.732Z,259.47
2018-06-08T07:33:21.200Z,249.30
2018-06-08T07:35:49.665Z,237.43
2018-06-08T07:38:18.132Z,260.50
2018-06-08T07:40:46.364Z,242.70
2018-06-08T07:43:14.806Z,230.77
2018-06-08T07:45:43.355Z,243.70
2018-06-08T07:48:11.848Z,259.53
2018-06-08T07:50:40.325Z,225.87
2018-06-08T07:53:08.798Z,251.20
2018-06-08T07:55:37.300Z,230.53
2018-06-08T07:58:05.789Z,231.93
2018-06-08T08:00:34.299Z,234.90
2018-06-08T08:03:02.894Z,245.53
2018-06-08T08:05:31.355Z,227.63
2018-06-08T08:07:59.926Z,256.23
2018-06-08T08:10:28.547Z,227.27
2018-06-08T08:12:57.037Z,223.00
2018-06-08T08:15:25.512Z,234.47
2018-06-08T08:17:54.031Z,218.07
2018-06-08T08:20:22.611Z,219.30
2018-06-08T08:22:51.095Z,197.90
2018-06-08T08:25:19.812Z,190.37
2018-06-08T08:27:48.278Z,203.30
2018-06-08T08:30:16.748Z,206.07
2018-06-08T08:32:45.012Z,225.80
2018-06-08T08:35:13.481Z,217.70
2018-06-08T08:37:42.033Z,196.43
2018-06-08T08:40:10.548Z,164.00
2018-06-08T08:42:39.016Z,161.57
2018-06-08T08:45:07.545Z,155.57
2018-06-08T08:47:36.157Z,157.30
2018-06-08T08:50:04.854Z,157.90
2018-06-08T08:52:34.004Z,141.23
2018-06-08T08:55:02.570Z,127.93
2018-06-08T08:57:31.080Z,120.43
2018-06-08T08:59:59.293Z,114.43
2018-06-08T09:02:27.777Z,98.67
2018-06-08T09:04:56.295Z,109.23
2018-06-08T09:07:24.924Z,87.73
2018-06-08T09:09:53.424Z,80.63
2018-06-08T09:12:21.960Z,72.73
2018-06-08T09:14:50.446Z,78.57
2018-06-08T09:17:18.976Z,80.33
2018-06-08T09:19:47.442Z,75.47
2018-06-08T09:22:15.909Z,79.03
2018-06-08T09:24:44.420Z,73.13
2018-06-08T09:27:12.911Z,75.07
2018-06-08T09:29:41.366Z,81.53
2018-06-08T09:32:09.851Z,78.90
2018-06-08T09:34:38.307Z,76.40
2018-06-08T09:37:06.760Z,71.43
2018-06-08T09:39:35.227Z,65.93
2018-06-08T09:42:03.772Z,62.03
2018-06-08T09:44:32.239Z,64.40
2018-06-08T09:47:00.704Z,68.17
2018-06-08T09:49:29.164Z,72.20
2018-06-08T09:51:57.685Z,64.17
2018-06-08T09:54:25.849Z,67.30
2018-06-08T09:56:54.313Z,67.33
2018-06-08T09:59:22.785Z,69.57
2018-06-08T10:01:51.294Z,78.33
2018-06-08T10:04:19.864Z,72.90
2018-06-08T10:06:48.335Z,71.83
2018-06-08T10:09:16.983Z,70.57
2018-06-08T10:11:45.445Z,64.53
2018-06-08T10:14:13.940Z,60.37
2018-06-08T10:16:42.580Z,58.20
2018-06-08T10:19:10.984Z,58.00
2018-06-08T10:21:39.450Z,70.97
2018-06-08T10:24:07.969Z,62.20
2018-06-08T10:26:36.438Z,63.90
2018-06-08T10:29:05.771Z,62.13
2018-06-08T10:31:34.255Z,69.03
2018-06-08T10:34:02.762Z,55.47
2018-06-08T10:36:31.192Z,66.70
2018-06-08T10:38:59.696Z,66.40
2018-06-08T10:41:28.186Z,75.70
2018-06-08T10:43:56.727Z,82.23
2018-06-08T10:46:25.216Z,74.93
2018-06-08T10:48:53.800Z,82.57
2018-06-08T10:51:22.252Z,77.07
2018-06-08T10:53:51.309Z,66.77
2018-06-08T10:56:19.785Z,60.17
2018-06-08T10:58:48.264Z,68.70
2018-06-08T11:01:16.841Z,66.17
2018-06-08T11:03:45.302Z,65.73
2018-06-08T11:06:13.782Z,59.53
2018-06-08T11:08:42.288Z,49.37
2018-06-08T11:11:10.744Z,57.33
2018-06-08T11:13:39.194Z,58.90
2018-06-08T11:16:07.745Z,60.47
2018-06-08T11:18:36.229Z,68.30
2018-06-08T11:21:04.755Z,62.30
2018-06-08T11:23:33.257Z,53.87
2018-06-08T11:26:01.739Z,59.53
2018-06-08T11:28:30.243Z,47.53
2018-06-08T11:30:58.753Z,61.60
2018-06-08T11:33:27.285Z,68.77
2018-06-08T11:35:55.487Z,67.57
2018-06-08T11:38:24.019Z,74.23
2018-06-08T11:40:52.484Z,69.80
2018-06-08T11:43:21.025Z,75.37
2018-06-08T11:45:49.583Z,67.90
2018-06-08T11:48:18.112Z,60.87
2018-06-08T11:50:46.674Z,60.23
2018-06-08T11:53:15.240Z,60.47
2018-06-08T11:55:43.700Z,64.03
2018-06-08T11:58:12.348Z,56.00
2018-06-08T12:00:40.859Z,75.23
2018-06-08T12:03:09.328Z,75.93
2018-06-08T12:05:37.805Z,74.20
2018-06-08T12:08:06.333Z,81.17
2018-06-08T12:10:34.807Z,75.93
2018-06-08T12:13:03.279Z,66.97
2018-06-08T12:15:31.782Z,67.50
2018-06-08T12:18:00.292Z,69.07
2018-06-08T12:20:28.720Z,64.30
2018-06-08T12:22:57.276Z,57.20
2018-06-08T12:25:25.723Z,52.87
2018-06-08T12:27:54.171Z,45.67
2018-06-08T12:30:22.669Z,37.30
2018-06-08T12:32:51.119Z,35.27
2018-06-08T12:35:19.563Z,35.33
2018-06-08T12:37:48.066Z,36.67
2018-06-08T12:40:16.526Z,36.33
2018-06-08T12:42:44.971Z,37.30
2018-06-08T12:45:13.450Z,33.57
2018-06-08T12:47:41.898Z,31.70
2018-06-08T12:50:10.344Z,34.23
2018-06-08T12:52:38.848Z,27.37
2018-06-08T12:55:07.340Z,27.73
2018-06-08T12:57:35.796Z,25.90
2018-06-08T13:00:04.688Z,26.17
2018-06-08T13:02:33.149Z,31.13
2018-06-08T13:05:01.292Z,25.10
2018-06-08T13:07:29.763Z,25.73
2018-06-08T13:09:58.208Z,26.73
2018-06-08T13:12:26.722Z,23.40
2018-06-08T13:14:55.187Z,21.90
2018-06-08T13:17:23.627Z,25.03
2018-06-08T13:19:52.103Z,25.57
2018-06-08T13:22:20.713Z,24.17
2018-06-08T13:24:49.201Z,27.17
2018-06-08T13:27:17.754Z,19.57
2018-06-08T13:29:45.942Z,22.30
2018-06-08T13:32:14.399Z,25.07
2018-06-08T13:34:42.851Z,24.83
2018-06-08T13:37:11.356Z,19.43
2018-06-08T13:39:39.895Z,21.67
2018-06-08T13:42:08.327Z,21.20
2018-06-08T13:44:36.778Z,21.53
2018-06-08T13:47:05.457Z,53.73
2018-06-08T13:49:34.011Z,23.20
2018-06-08T13:52:02.504Z,27.47
2018-06-08T13:54:30.958Z,21.80
2018-06-08T13:56:59.370Z,28.53
2018-06-08T13:59:27.929Z,22.60
2018-06-08T14:01:56.392Z,22.87
2018-06-08T14:04:24.848Z,22.47
2018-06-08T14:06:53.326Z,21.87
2018-06-08T14:09:21.760Z,22.13
2018-06-08T14:11:50.238Z,25.03
2018-06-08T14:14:18.798Z,23.83
2018-06-08T14:16:47.235Z,22.83
2018-06-08T14:19:15.730Z,24.27
2018-06-08T14:21:44.197Z,22.97
2018-06-08T14:24:12.637Z,22.93
2018-06-08T14:26:41.254Z,23.50
2018-06-08T14:29:09.729Z,38.37
2018-06-08T14:31:38.195Z,23.20
2018-06-08T14:34:06.651Z,22.03
2018-06-08T14:36:35.133Z,21.00
2018-06-08T14:39:03.835Z,19.93
2018-06-08T14:41:32.279Z,23.53
2018-06-08T14:44:00.745Z,22.93
2018-06-08T14:46:29.235Z,25.50
2018-06-08T14:48:57.701Z,24.03
2018-06-08T14:51:26.268Z,23.70
2018-06-08T14:53:54.733Z,22.90
2018-06-08T14:56:23.314Z,24.13
2018-06-08T14:58:51.802Z,28.03
2018-06-08T15:01:20.292Z,24.97
2018-06-08T15:03:48.780Z,24.50
2018-06-08T15:06:17.400Z,26.37
2018-06-08T15:08:45.889Z,29.03
2018-06-08T15:11:14.458Z,29.47
2018-06-08T15:13:42.870Z,20.83
2018-06-08T15:16:11.443Z,22.67
2018-06-08T15:18:39.967Z,18.73
2018-06-08T15:21:08.491Z,21.47
2018-06-08T15:23:36.998Z,21.70
2018-06-08T15:26:05.659Z,23.47
2018-06-08T15:28:34.178Z,24.13
2018-06-08T15:31:02.652Z,21.53
2018-06-08T15:33:31.099Z,21.17
2018-06-08T15:36:00.582Z,23.37
2018-06-08T15:38:29.029Z,23.07
2018-06-08T15:40:57.503Z,23.87
2018-06-08T15:43:25.977Z,25.83
2018-06-08T15:45:54.462Z,23.87
2018-06-08T15:48:22.908Z,21.27
2018-06-08T15:50:51.476Z,30.93
2018-06-08T15:53:19.928Z,21.53
2018-06-08T15:55:48.381Z,20.27
2018-06-08T15:58:16.906Z,21.30
2018-06-08T16:00:45.359Z,28.40
2018-06-08T16:03:13.964Z,20.10
2018-06-08T16:05:42.477Z,23.00
2018-06-08T16:08:10.914Z,22.63
2018-06-08T16:10:39.378Z,23.83
2018-06-08T16:13:07.853Z,25.27
2018-06-08T16:15:36.398Z,26.30
2018-06-08T16:18:04.880Z,25.13
2018-06-08T16:20:33.460Z,27.33
2018-06-08T16:23:01.906Z,20.90
2018-06-08T16:25:30.347Z,24.03
2018-06-08T16:27:58.853Z,21.83
2018-06-08T16:30:27.306Z,22.17
2018-06-08T16:32:55.829Z,48.47
2018-06-08T16:35:24.340Z,34.07
2018-06-08T16:37:52.955Z,55.77
2018-06-08T16:40:21.418Z,25.63
2018-06-08T16:42:50.002Z,28.80
2018-06-08T16:45:18.454Z,25.23
2018-06-08T16:47:46.945Z,25.70
2018-06-08T16:50:15.545Z,24.77
2018-06-08T16:52:44.022Z,29.40
2018-06-08T16:55:12.507Z,38.90
2018-06-08T16:57:41.007Z,25.53
2018-06-08T17:00:09.477Z,26.93
2018-06-08T17:02:37.970Z,30.13
2018-06-08T17:05:06.683Z,20.47
2018-06-08T17:07:35.134Z,22.80
2018-06-08T17:10:03.649Z,24.20
2018-06-08T17:12:32.334Z,21.53
2018-06-08T17:15:00.779Z,23.63
2018-06-08T17:17:29.678Z,25.37
2018-06-08T17:19:58.548Z,23.67
2018-06-08T17:22:27.056Z,23.80
2018-06-08T17:24:55.542Z,21.50
2018-06-08T17:27:24.032Z,32.97
2018-06-08T17:29:52.611Z,27.73
2018-06-08T17:32:21.076Z,21.93
2018-06-08T17:37:12.276Z,29.47
2018-06-08T17:39:40.541Z,24.47
2018-06-08T17:42:09.012Z,25.80
2018-06-08T17:44:37.526Z,28.67
2018-06-08T17:47:06.016Z,26.80
2018-06-08T17:49:34.593Z,23.80
2018-06-08T17:52:03.128Z,25.53
2018-06-08T17:54:31.585Z,25.03
2018-06-08T17:57:00.259Z,23.60
2018-06-08T17:59:28.747Z,30.33
2018-06-08T18:01:57.213Z,32.07
2018-06-08T18:04:25.715Z,24.53
2018-06-08T18:06:54.946Z,23.00
2018-06-08T18:09:23.444Z,27.37
2018-06-08T18:11:52.033Z,26.63
2018-06-08T18:14:20.575Z,25.90
2018-06-08T18:16:49.058Z,31.43
2018-06-08T18:19:17.523Z,31.20
2018-06-08T18:21:46.080Z,27.57
2018-06-08T18:24:14.639Z,31.87
2018-06-08T18:26:43.125Z,29.93
2018-06-08T18:29:11.632Z,39.77
2018-06-08T18:31:40.144Z,35.93
2018-06-08T18:34:08.618Z,32.93
2018-06-08T18:36:37.128Z,32.77
2018-06-08T18:39:08.058Z,39.07
2018-06-08T18:41:36.749Z,34.20
2018-06-08T18:44:05.313Z,35.00
2018-06-08T18:46:33.776Z,36.50
2018-06-08T18:49:02.232Z,38.13
2018-06-08T18:51:30.740Z,36.50
2018-06-08T18:53:59.199Z,46.53
2018-06-08T18:56:27.732Z,43.60
2018-06-08T18:58:56.249Z,44.27
2018-06-08T19:01:24.783Z,36.03
2018-06-08T19:03:53.277Z,40.33
2018-06-08T19:06:21.756Z,37.73
2018-06-08T19:08:50.208Z,42.53
2018-06-08T19:11:18.433Z,40.30
2018-06-08T19:13:46.920Z,40.97
2018-06-08T19:16:15.393Z,41.33
2018-06-08T19:18:43.856Z,42.30
2018-06-08T19:21:12.341Z,44.90
2018-06-08T19:23:40.820Z,41.17
2018-06-08T19:26:09.332Z,42.47
2018-06-08T19:28:37.853Z,52.07
2018-06-08T19:31:06.415Z,60.67
2018-06-08T19:33:34.939Z,48.20
2018-06-08T19:36:03.571Z,0.30
2018-06-08T19:38:32.019Z,0.20
2018-06-08T19:41:00.490Z,0.40
2018-06-08T19:43:28.994Z,0.20
2018-06-08T19:45:57.468Z,0.20
2018-06-08T19:48:25.938Z,0.70
2018-06-08T19:50:54.397Z,1.10
2018-06-08T19:53:22.548Z,0.20
2018-06-08T19:55:51.104Z,0.20
2018-06-08T19:58:19.606Z,0.20
2018-06-08T20:00:48.053Z,0.20
2018-06-08T20:03:16.539Z,0.20
2018-06-08T20:05:45.690Z,0.20
2018-06-08T20:08:14.213Z,0.20
2018-06-08T20:10:42.710Z,0.20
2018-06-08T20:13:11.238Z,0.20
2018-06-08T20:15:39.717Z,0.30
2018-06-08T20:18:08.198Z,0.20
2018-06-08T20:20:36.693Z,0.20
2018-06-08T20:23:05.020Z,0.20
2018-06-08T20:25:33.524Z,0.20
2018-06-08T20:28:02.008Z,68.03
2018-06-08T20:30:30.607Z,83.53
2018-06-08T20:32:59.104Z,87.73
2018-06-08T20:35:27.600Z,88.40
2018-06-08T20:37:56.114Z,85.83
2018-06-08T20:40:24.799Z,90.10
2018-06-08T20:42:53.400Z,90.90
2018-06-08T20:45:21.984Z,111.33
2018-06-08T20:47:50.459Z,103.60
2018-06-08T20:50:19.032Z,101.80
2018-06-08T20:52:47.499Z,87.73
2018-06-08T20:55:15.975Z,92.07
2018-06-08T20:57:57.279Z,92.80
2018-06-08T21:00:25.754Z,89.27
2018-06-08T21:02:54.246Z,118.57
2018-06-08T21:05:22.743Z,105.97
2018-06-08T21:07:51.345Z,123.67
2018-06-08T21:10:19.880Z,130.23
2018-06-08T21:12:48.359Z,126.63
2018-06-08T21:15:16.849Z,129.37
2018-06-08T21:17:45.354Z,126.73
2018-06-08T21:20:13.894Z,109.50
2018-06-08T21:22:42.338Z,112.87
2018-06-08T21:25:10.789Z,103.63
2018-06-08T21:27:39.280Z,97.13
2018-06-08T21:30:07.744Z,93.00
2018-06-08T21:32:36.222Z,105.53
2018-06-08T21:35:04.931Z,101.67
2018-06-08T21:37:33.402Z,115.67
2018-06-08T21:40:01.854Z,126.60
2018-06-08T21:42:30.323Z,111.07
2018-06-08T21:44:58.771Z,125.83
2018-06-08T21:47:27.254Z,123.40
2018-06-08T21:49:55.733Z,124.07
2018-06-08T21:52:24.190Z,112.83
2018-06-08T21:54:52.674Z,118.60
2018-06-08T21:57:21.217Z,118.37
2018-06-08T21:59:49.664Z,120.87
2018-06-08T22:02:18.305Z,129.40
2018-06-08T22:04:46.915Z,127.97
2018-06-08T22:07:15.392Z,145.07
2018-06-08T22:09:43.887Z,132.50
2018-06-08T22:12:12.365Z,132.17
2018-06-08T22:14:40.856Z,144.17
2018-06-08T22:17:09.337Z,145.50
2018-06-08T22:19:37.881Z,165.80
2018-06-08T22:22:06.509Z,144.20
2018-06-08T22:24:35.001Z,167.50
2018-06-08T22:27:03.673Z,147.73
2018-06-08T22:29:32.237Z,167.10
2018-06-08T22:32:00.837Z,183.07
2018-06-08T22:34:29.326Z,178.33
2018-06-08T22:36:57.806Z,196.77
2018-06-08T22:39:26.286Z,187.67
2018-06-08T22:41:55.930Z,198.00
2018-06-08T22:44:24.398Z,194.10
2018-06-08T22:46:52.910Z,196.77
2018-06-08T22:49:21.395Z,197.47
2018-06-08T22:51:49.889Z,190.60
2018-06-08T22:54:18.386Z,212.33
2018-06-08T22:56:46.885Z,228.97
2018-06-08T22:59:15.472Z,191.77
2018-06-08T23:01:44.007Z,206.50
2018-06-08T23:04:12.474Z,231.67
2018-06-08T23:06:41.002Z,235.47
2018-06-08T23:09:09.461Z,223.70
2018-06-08T23:11:37.946Z,234.87
2018-06-08T23:14:06.407Z,214.93
2018-06-08T23:16:34.559Z,205.27
2018-06-08T23:19:03.103Z,205.43
2018-06-08T23:21:31.595Z,226.07
2018-06-08T23:24:00.068Z,231.13
2018-06-08T23:26:28.547Z,166.00
2018-06-08T23:28:57.039Z,169.00
2018-06-08T23:31:25.484Z,151.90
2018-06-08T23:33:53.935Z,136.57
2018-06-08T23:36:22.400Z,127.83
2018-06-08T23:38:50.861Z,106.77
2018-06-08T23:41:19.318Z,1.17
2018-06-08T23:43:47.761Z,0.30
2018-06-08T23:46:16.211Z,0.20
2018-06-08T23:48:44.750Z,0.30
2018-06-08T23:51:13.228Z,0.20
2018-06-08T23:53:41.662Z,0.20
2018-06-08T23:56:10.156Z,0.20
2018-06-08T23:58:38.588Z,0.20
